Flight Track Log - Related Links

Times and Time Zones

All times are in EDT time to prevent confusion due to time zone crossing. See the XOJ750 flight status page for this flight to view local times or setup timezone preferences in your user account.

Time Position Orientation Groundspeed Altitude Reporting Facility
EDT Latitude Longitude Course Direction KTS MPH feet Rate Location/Type
Fri 12:03:23 PM 41.8000 -87.7833 37° Northeast 191 220 2,000  Level Chicago TRACON
Fri 12:04:23 PM 41.8500 -87.7333 37° Northeast 259 298 3,000 478 Climbing Chicago TRACON
Fri 12:05:16 PM 41.8547 -87.6647 85° East 254 292 2,900 1,252 Descending Chicago Center
Fri 12:06:18 PM 41.8522 -87.5686 92° East 260 299 5,400 2,878 Climbing Chicago Center
Fri 12:07:19 PM 41.8328 -87.4675 104° East 276 318 8,800 3,317 Climbing Chicago Center
Fri 12:08:21 PM 41.8142 -87.3608 103° East 290 334 12,200 3,194 Climbing Chicago Center
Fri 12:09:23 PM 41.7967 -87.2183 99° East 327 376 15,400 2,613 Climbing Chicago Center
Fri 12:10:25 PM 41.8311 -87.0922 70° East 356 410 17,600 1,935 Climbing Chicago Center
Fri 12:11:27 PM 41.8797 -86.9575 64° Northeast 390 449 19,400 1,854 Climbing Chicago Center
Fri 12:12:28 PM 41.9217 -86.8125 69° East 413 475 21,400 2,000 Climbing Chicago Center
Fri 12:13:30 PM 41.9269 -86.6453 88° East 426 490 23,500 1,935 Climbing Chicago Center
Fri 12:14:32 PM 41.9386 -86.4814 84° East 436 502 25,400 1,839 Climbing Chicago Center
Fri 12:15:34 PM 41.9494 -86.3142 85° East 446 513 27,300 1,645 Climbing Chicago Center
Fri 12:16:36 PM 41.9600 -86.1417 85° East 457 526 28,800 1,597 Climbing Chicago Center
Fri 12:17:38 PM 41.9742 -85.9250 85° East 479 551 30,600 1,597 Climbing Chicago Center
Fri 12:18:40 PM 41.9869 -85.7400 85° East 491 565 32,100 1,463 Climbing Chicago Center
Fri 12:19:41 PM 41.9989 -85.5494 85° East 502 578 33,600 1,024 Climbing Chicago Center
Fri 12:20:43 PM 42.0069 -85.3758 86° East 515 593 34,200 1,161 Climbing Chicago Center
Fri 12:21:45 PM 42.0214 -85.1353 85° East 537 618 36,000 1,694 Climbing Chicago Center
Fri 12:22:47 PM 42.0311 -84.9436 86° East 525 604 37,700 1,548 Climbing Chicago Center
Fri 12:23:49 PM 42.0411 -84.7522 86° East 517 595 39,200 1,355 Climbing Chicago Center
Fri 12:24:51 PM 42.0514 -84.5578 86° East 521 600 40,500 871 Climbing Chicago Center
Fri 12:25:53 PM 42.0603 -84.3636 86° East 522 601 41,000 242 Climbing Chicago Center
Fri 12:26:55 PM 42.0672 -84.1442 87° East 519 597 41,000 231 Level Cleveland Center
Fri 12:28:55 PM 42.0831 -83.7447 87° East 535 616 41,700 467 Climbing Cleveland Center
Fri 12:29:55 PM 42.0931 -83.5269 86° East 528 608 42,400 700 Climbing Cleveland Center
Fri 12:30:55 PM 42.0978 -83.3342 88° East 523 602 43,100 700 Climbing Cleveland Center
Fri 12:31:55 PM 42.0900 -83.1406 93° East 519 597 43,800 600 Climbing Cleveland Center
Fri 12:32:55 PM 42.0878 -82.9503 91° East 514 592 44,300 500 Climbing Cleveland Center
Fri 12:33:55 PM 42.0811 -82.7542 93° East 520 598 44,800 350 Climbing Cleveland Center
Fri 12:34:55 PM 42.0764 -82.5608 92° East 520 598 45,000 100 Climbing Cleveland Center
Fri 12:35:55 PM 42.0669 -82.3706 94° East 520 598 45,000  Level Cleveland Center
Fri 12:36:55 PM 42.0697 -82.1719 89° East 520 598 45,000  Level Cleveland Center
Fri 12:37:55 PM 42.0639 -81.9928 92° East 520 598 45,000  Level Cleveland Center
Fri 12:38:55 PM 42.0597 -81.8025 92° East 520 598 45,000  Level Cleveland Center
Fri 12:39:55 PM 42.0514 -81.5869 93° East 515 593 45,000  Level Cleveland Center
Fri 12:40:55 PM 42.0467 -81.3911 92° East 516 594 45,000  Level Cleveland Center
Fri 12:41:55 PM 42.0375 -81.2011 94° East 516 594 45,000  Level Cleveland Center
Fri 12:42:55 PM 42.0322 -81.0081 92° East 515 593 45,000  Level Cleveland Center
Fri 12:43:55 PM 42.0244 -80.8122 93° East 521 600 45,000  Level Cleveland Center
Fri 12:44:55 PM 42.0142 -80.6167 94° East 521 600 45,000  Level Cleveland Center
Fri 12:45:55 PM 42.0058 -80.4239 93° East 523 602 45,000  Level Cleveland Center
Fri 12:46:55 PM 41.9992 -80.2506 93° East 518 596 45,000  Level Cleveland Center
Fri 12:47:56 PM 41.9900 -80.0581 94° East 513 590 45,000  Level Cleveland Center
Fri 12:48:55 PM 41.9806 -79.8431 93° East 513 590 45,000  Level Cleveland Center
Fri 12:49:55 PM 41.9708 -79.6503 94° East 518 596 45,000  Level Cleveland Center
Fri 12:50:55 PM 41.9608 -79.4578 94° East 518 596 45,000  Level Cleveland Center
Fri 12:51:55 PM 41.9503 -79.2625 94° East 518 596 45,000  Level Cleveland Center
Fri 12:52:55 PM 41.9397 -79.0703 94° East 518 596 45,000  Level Cleveland Center
Fri 12:53:55 PM 41.9286 -78.8778 94° East 518 596 45,000  Level Cleveland Center
Fri 12:54:55 PM 41.9172 -78.6856 94° East 518 596 45,000  Level Cleveland Center
Fri 12:55:55 PM 41.9075 -78.4906 94° East 518 596 45,000 -50 Level Cleveland Center
Fri 12:56:55 PM 41.8936 -78.3042 96° East 518 596 44,900 -1,482 Descending Cleveland Center
Fri 12:58:41 PM 41.8744 -77.9967 95° East 481 554 40,900 -2,488 Descending New York Center
Fri 12:59:39 PM 41.8522 -77.8133 99° East 493 567 38,100 -2,700 Descending New York Center
Fri 01:00:41 PM 41.8044 -77.6300 109° East 500 575 35,500 -1,525 Descending New York Center
Fri 01:01:41 PM 41.7567 -77.4472 109° East 510 587 35,000 -550 Descending New York Center
Fri 01:02:41 PM 41.7083 -77.2644 109° East 521 600 34,400 -1,240 Descending New York Center
Fri 01:03:42 PM 41.7103 -77.0728 89° East 507 583 32,500 -1,475 Descending New York Center
Fri 01:04:39 PM 41.6850 -76.8789 100° East 523 602 31,500 -1,831 Descending New York Center
Fri 01:05:40 PM 41.6200 -76.6814 114° Southeast 523 602 28,900 -2,479 Descending New York Center
Fri 01:06:40 PM 41.5581 -76.5039 115° Southeast 523 602 26,500 -2,132 Descending New York Center
Fri 01:07:41 PM 41.4994 -76.3328 115° Southeast 523 602 24,600 -1,623 Descending New York Center
Fri 01:08:42 PM 41.4461 -76.1789 115° Southeast 517 595 23,200 -1,576 Descending New York Center
Fri 01:09:39 PM 41.3867 -76.0164 116° Southeast 506 582 21,500 -1,729 Descending New York Center
Fri 01:10:40 PM 41.3311 -75.8603 115° Southeast 485 558 19,800 -1,636 Descending New York Center
Fri 01:11:40 PM 41.2753 -75.7014 115° Southeast 479 551 18,200 -1,835 Descending New York Center
Fri 01:12:41 PM 41.2197 -75.5319 114° Southeast 466 536 16,100 -2,370 Descending New York Center
Fri 01:13:39 PM 41.1772 -75.3992 113° Southeast 440 506 13,500 -2,450 Descending New York Center
Fri 01:14:41 PM 41.1614 -75.2658 99° East 375 432 11,200 -1,951 Descending New York Center
Fri 01:15:42 PM 41.1603 -75.1336 91° East 342 394 9,500 -1,714 Descending New York Center
Fri 01:16:40 PM 41.1006 -75.0553 135° Southeast 291 335 7,800 -1,744 Descending New York Center
Fri 01:17:39 PM 41.0428 -74.9828 137° Southeast 284 327 6,100 -900 Descending New York Center
Fri 01:18:40 PM 41.0294 -74.8858 100° East 286 329 6,000 -148 Descending New York Center
Fri 01:19:41 PM 41.0294 -74.7675 90° East 286 329 5,800 -683 Descending New York Center
Fri 01:20:43 PM 41.0283 -74.6711 91° East 291 335 4,600 -900 Descending New York Center
Fri 01:21:41 PM 41.0281 -74.5583 90° East 291 335 4,000 -706 Descending New York Center
Fri 01:22:42 PM 41.0289 -74.4650 89° East 291 335 3,200 -508 Descending New York Center
Fri 01:23:39 PM 41.0303 -74.3522 89° East 286 329 3,000 -102 Descending New York Center
Fri 01:24:40 PM 41.0267 -74.2642 93° East 274 315 3,000 -439 Level New York Center
Fri 01:25:42 PM 41.0233 -74.1650 93° East 269 310 2,100 -496 Descending New York Center
Fri 01:26:41 PM 41.0031 -74.0650 105° East 258 297 2,000 -150 Descending New York Center
Fri 01:27:42 PM 40.9536 -74.0544 171° South 197 227 1,800 -504 Descending New York Center
Fri 01:28:40 PM 40.9056 -74.0575 183° South 169 194 1,000 -756 Descending New York Center
Fri 01:29:41 PM 40.8722 -74.0586 181° South 147 169 300 -689 Descending New York Center
Fri 01:31:00 PM 40.8500 -74.0500 180° South  Level FlightAware Approximate
Fri 01:38:00 PM 40.8501 -74.0608 180° South  Level Estimated

Login

Don't have an account? Register now (free) for customized features, flight alerts, and more!